x

Destruction Island, Wa (desw1) Weather Station

7:00pm - Sun 22nd Oct 2017 All times are PDT. -7 hours from GMT.

  • Wind
    11mph, 13mph gusts
  • Air Temp 55°f
  • Sea Pressure 1028mb
  • Destruction Island, Wa
  • Destruction Island, Wa

More Historic Weather Station data

Upgrade to MSW Pro to gain access to the past 30 days of data for over 8000 Wavebouys and Weather Stations around the globe.

Join

Comparision Forecast

View Surf forecast
   
Sun 10/22 7:00pm 11 13 mph 1028mb 55f
6:00pm 14 14 mph 1027.3mb 54f
5:00pm 14 15 mph 1026.3mb 54f
4:00pm 14 14 mph 1025.8mb 54f
3:00pm 17 18 mph 1024.8mb 55f
2:00pm 18 18 mph 1024mb 55f
1:00pm 15 15 mph 1023.1mb 55f
12:00pm 15 16 mph 1022mb 55f
11:00am 11 11 mph 1020.7mb 55f
10:00am 17 20 mph 1019.3mb 54f
9:00am 16 16 mph 1017.8mb 55f
8:00am 15 15 mph 1016.4mb 54f
7:00am 15 16 mph 1014.9mb 54f
6:00am 24 26 mph 1013.1mb 55f
5:00am 14 15 mph 1011.9mb 54f
4:00am 17 21 mph 1010.5mb 55f
3:00am 29 31 mph 1008.7mb 54f
2:00am 28 30 mph 1007.3mb 54f
1:00am 29 31 mph 1005.6mb 55f
12:00am 30 31 mph 1004.7mb 55f
Sat 10/21 11:00pm 22 23 mph 1004.4mb 55f
10:00pm 21 22 mph 1004.1mb 55f
9:00pm 21 22 mph 1003.1mb 55f
8:00pm 23 25 mph 1002.7mb 55f
7:00pm 26 29 mph 1001.5mb 56f
6:00pm 32 34 mph 1000.8mb 56f
5:00pm 31 33 mph 1000.7mb 53f
4:00pm 37 41 mph 1000.3mb 52f
3:00pm 31 33 mph 1001.4mb 51f
2:00pm 26 29 mph 1003.1mb 51f
1:00pm 22 29 mph 1004.2mb 51f
12:00pm 32 34 mph 1004.1mb 50f
11:00am 31 34 mph 1004.3mb 50f
10:00am 32 36 mph 1004mb 49f
9:00am 39 43 mph 1003.3mb 49f
8:00am 48 53 mph 1002mb 49f
7:00am 44 52 mph 1001.9mb 49f
6:00am 39 44 mph 1002.9mb 48f
5:00am 38 43 mph 1005.1mb 48f
4:00am 36 39 mph 1006.6mb 48f
3:00am 31 34 mph 1008.3mb 48f
2:00am 31 34 mph 1009.1mb 49f
1:00am 30 33 mph 1009.5mb 48f
12:00am 28 31 mph 1010.6mb 49f
Fri 10/20 11:00pm 23 26 mph 1011.3mb 49f
10:00pm 22 24 mph 1011.5mb 48f
9:00pm 21 22 mph 1011.6mb 49f
8:00pm 10 11 mph 1011.6mb 51f
7:00pm 17 21 mph 1011.4mb 52f
6:00pm 7 8 mph 1011.4mb 51f
5:00pm 5 6 mph 1010.8mb 51f
4:00pm 6 6 mph 1010.3mb 52f
3:00pm 14 16 mph 1009.7mb 50f
2:00pm 13 15 mph 1009.1mb 51f
1:00pm 11 13 mph 1008.4mb 50f
12:00pm 15 17 mph 1007.5mb 49f
11:00am 10 13 mph 1006.4mb 49f
10:00am 13 14 mph 1005.4mb 51f
9:00am 22 23 mph 1004.3mb 51f
7:00am 16 20 mph 1002.7mb 49f
6:00am 18 21 mph 1001.9mb 49f
5:00am 14 15 mph 1001.4mb 49f
4:00am 14 16 mph 1000.9mb 50f
3:00am 17 18 mph 1000.6mb 49f
2:00am 14 15 mph 1000.4mb 49f
1:00am 11 13 mph 1000.5mb 49f
12:00am 10 11 mph 1000.1mb 49f
Thu 10/19 11:00pm 6 8 mph 999.8mb 50f
10:00pm 6 6 mph 999.3mb 48f
9:00pm 3 6 mph 998.6mb 48f
8:00pm 10 11 mph 998.2mb 48f
7:00pm 11 13 mph 997.4mb 49f
6:00pm 21 24 mph 997.2mb 51f
5:00pm 26 29 mph 997mb 52f
4:00pm 24 26 mph 996.9mb 52f
3:00pm 23 26 mph 997.4mb 53f
2:00pm 22 25 mph 997.9mb 51f
1:00pm 32 38 mph 998.5mb 51f
12:00pm 22 23 mph 998.3mb 51f
11:00am 26 29 mph 998.3mb 52f
10:00am 17 22 mph 998.8mb 51f
9:00am 21 22 mph 998.7mb 54f
8:00am 26 31 mph 998.8mb 54f
7:00am 32 34 mph 999.1mb 53f
6:00am 26 30 mph 999.8mb 53f
5:00am 31 36 mph 999.9mb 53f
4:00am 28 38 mph 1000.2mb 53f